Flight Track Log - Related Links

Times and Time Zones

All times are in EDT time to prevent confusion due to time zone crossing. See the AWE1710 flight status page for this flight to view local times or setup timezone preferences in your user account.

Time Position Orientation Groundspeed Altitude Reporting Facility
EDT Latitude Longitude Course Direction KTS MPH feet Rate Location/Type
Thu 02:23:46 PM 35.1908 -80.9356 180° South 160 184 1,800  Level Atlanta Center
Thu 02:24:53 PM 35.1281 -80.9278 174° South 207 238 3,100 1,603 Climbing Atlanta Center
Thu 02:26:12 PM 35.0358 -80.9111 172° South 271 312 5,700 2,158 Climbing Atlanta Center
Thu 02:27:00 PM 34.7904 -80.9732 180° South  Level Estimated
Thu 02:27:12 PM 34.9625 -80.9036 175° South 278 320 8,100  Level Atlanta Center
Thu 02:28:00 PM 34.6845 -80.9792 180° South  Level Estimated
Thu 02:28:45 PM 34.8450 -80.9044 180° South 281 323 10,800  Level Jacksonville Center
Thu 02:29:45 PM 34.7533 -80.9014 178° South 319 367 11,900 1,650 Climbing Jacksonville Center
Thu 02:30:45 PM 34.6447 -80.8964 178° South 350 403 14,100 1,850 Climbing Jacksonville Center
Thu 02:31:45 PM 34.5403 -80.8886 176° South 365 420 15,600 1,500 Climbing Jacksonville Center
Thu 02:32:45 PM 34.4406 -80.9061 188° South 365 420 17,100 1,400 Climbing Jacksonville Center
Thu 02:33:45 PM 34.3367 -80.9336 192° South 372 428 18,400 1,450 Climbing Jacksonville Center
Thu 02:34:45 PM 34.2325 -80.9586 191° South 385 443 20,000 1,550 Climbing Jacksonville Center
Thu 02:35:45 PM 34.1225 -80.9886 193° South 392 451 21,500 1,300 Climbing Jacksonville Center
Thu 02:36:45 PM 34.0144 -81.0161 192° South 397 457 22,600 1,050 Climbing Jacksonville Center
Thu 02:37:45 PM 33.9064 -81.0433 192° South 397 457 23,600 1,150 Climbing Jacksonville Center
Thu 02:38:45 PM 33.7917 -81.0583 186° South 410 472 24,900 1,150 Climbing Jacksonville Center
Thu 02:39:45 PM 33.6750 -81.0633 182° South 416 479 25,900 950 Climbing Jacksonville Center
Thu 02:40:45 PM 33.5561 -81.0656 181° South 422 486 26,800 750 Climbing Jacksonville Center
Thu 02:41:45 PM 33.4350 -81.0706 182° South 422 486 27,400 650 Climbing Jacksonville Center
Thu 02:42:45 PM 33.3161 -81.0731 181° South 427 491 28,100 950 Climbing Jacksonville Center
Thu 02:43:45 PM 33.1911 -81.0781 182° South 438 504 29,300 950 Climbing Jacksonville Center
Thu 02:44:45 PM 33.0722 -81.0831 182° South 438 504 30,000 350 Climbing Jacksonville Center
Thu 02:45:45 PM 32.9553 -81.0853 181° South 438 504 30,000  Level Jacksonville Center
Thu 02:46:45 PM 32.8342 -81.0878 181° South 438 504 30,000  Level Jacksonville Center
Thu 02:47:45 PM 32.7111 -81.0928 182° South 438 504 30,000  Level Jacksonville Center
Thu 02:48:45 PM 32.5964 -81.0975 182° South 433 498 30,000  Level Jacksonville Center
Thu 02:49:45 PM 32.4878 -81.0847 174° South 427 491 30,000  Level Jacksonville Center
Thu 02:50:45 PM 32.3558 -81.0628 172° South 443 510 30,000  Level Jacksonville Center
Thu 02:51:45 PM 32.2514 -81.0503 174° South 432 497 30,000  Level Jacksonville Center
Thu 02:52:45 PM 32.1172 -81.0258 171° South 432 497 30,000  Level Jacksonville Center
Thu 02:53:45 PM 31.9981 -81.0111 174° South 438 504 30,000  Level Jacksonville Center
Thu 02:54:45 PM 31.8892 -80.9964 173° South 438 504 30,000  Level Jacksonville Center
Thu 02:55:45 PM 31.7594 -80.9769 173° South 438 504 30,000  Level Jacksonville Center
Thu 02:56:45 PM 31.6383 -80.9600 173° South 438 504 30,000  Level Jacksonville Center
Thu 02:57:45 PM 31.5272 -80.9428 172° South 447 514 30,000  Level Jacksonville Center
Thu 02:58:45 PM 31.3933 -80.9261 174° South 441 507 30,000  Level Jacksonville Center
Thu 02:59:45 PM 31.2700 -80.9092 173° South 453 521 30,000  Level Jacksonville Center
Thu 03:00:45 PM 31.1508 -80.8947 174° South 436 502 30,000  Level Jacksonville Center
Thu 03:01:45 PM 31.0272 -80.8756 172° South 441 507 30,000  Level Jacksonville Center
Thu 03:02:45 PM 30.9081 -80.8611 174° South 441 507 30,000 -50 Level Jacksonville Center
Thu 03:03:45 PM 30.7886 -80.8419 172° South 446 513 29,900  Descending Jacksonville Center
Thu 03:04:45 PM 30.6672 -80.8253 173° South 446 513 30,000 50 Climbing Jacksonville Center
Thu 03:05:45 PM 30.5522 -80.8083 173° South 440 506 30,000 -50 Level Jacksonville Center
Thu 03:06:45 PM 30.4350 -80.7942 174° South 429 494 29,900 -50 Descending Jacksonville Center
Thu 03:07:45 PM 30.3158 -80.7775 173° South 429 494 29,900  Level Jacksonville Center
Thu 03:08:45 PM 30.1986 -80.7608 173° South 429 494 29,900 50 Level Jacksonville Center
Thu 03:09:45 PM 30.0814 -80.7442 173° South 423 487 30,000 -350 Climbing Jacksonville Center
Thu 03:10:45 PM 29.9642 -80.7278 173° South 423 487 29,200 -1,550 Descending Jacksonville Center
Thu 03:11:45 PM 29.8469 -80.7136 174° South 423 487 26,900 -2,200 Descending Jacksonville Center
Thu 03:12:45 PM 29.7319 -80.6994 174° South 423 487 24,800 -2,100 Descending Jacksonville Center
Thu 03:13:45 PM 29.6211 -80.6900 176° South 413 475 22,700 -2,100 Descending Jacksonville Center
Thu 03:14:45 PM 29.5169 -80.6969 183° South 398 458 20,600 -2,000 Descending Jacksonville Center
Thu 03:15:45 PM 29.4147 -80.7042 184° South 387 445 18,700 -2,050 Descending Jacksonville Center
Thu 03:16:45 PM 29.3128 -80.7136 185° South 375 432 16,500 -2,050 Descending Jacksonville Center
Thu 03:17:45 PM 29.2147 -80.7250 186° South 362 417 14,600 -1,750 Descending Jacksonville Center
Thu 03:18:45 PM 29.1208 -80.7319 184° South 356 410 13,000 -1,200 Descending Jacksonville Center
Thu 03:19:45 PM 29.0439 -80.7383 184° South 328 377 12,200 -500 Descending Jacksonville Center
Thu 03:20:45 PM 28.9772 -80.7542 192° South 287 330 12,000 -700 Descending Jacksonville Center
Thu 03:21:45 PM 28.9325 -80.8239 234° Southwest 249 287 10,800 -1,450 Descending Jacksonville Center
Thu 03:22:45 PM 28.8878 -80.8911 233° Southwest 254 292 9,100 -1,667 Descending Jacksonville Center
Thu 03:23:15 PM 28.8667 -80.9167 227° Southwest 266 306 8,300 -1,400 Descending Orlando TRACON
Thu 03:24:15 PM 28.8167 -80.9833 229° Southwest 248 285 7,000 -1,150 Descending Orlando TRACON
Thu 03:25:15 PM 28.7833 -81.0500 240° Southwest 240 276 6,000 -526 Descending Orlando TRACON
Thu 03:26:09 PM 28.7500 -81.1000 233° Southwest 238 274 6,000  Level Orlando TRACON
Thu 03:26:45 PM 28.7244 -81.1383 233° Southwest 251 289 6,000 -563 Level Jacksonville Center
Thu 03:27:45 PM 28.7128 -81.2025 258° West 227 261 5,100 -909 Descending Jacksonville Center
Thu 03:30:03 PM 28.6667 -81.3167 245° Southwest 143 165 3,000 -913 Descending Orlando TRACON

Login

Don't have an account? Register now (free) for customized features, flight alerts, and more!